Time;durP1;ratioP1;P1;durP2;ratioP2;P2;SDS_P1;SDS_P2;PMS_P1;PMS_P2;Temp;Humidity;BMP_temperature;BMP_pressure;BME280_temperature;BME280_humidity;BME280_pressure;Samples;Min_cycle;Max_cycle;Signal;HPM_P1;HPM_P2
2023/03/22 00:00:51;;;;;;;8.68;4.65;;;;;;;9.22;81.86;93593.88;5063470;28;20047;-70
2023/03/22 00:03:16;;;;;;;8.45;4.95;;;;;;;9.23;81.99;93590.88;5061880;28;20071;-70
2023/03/22 00:05:42;;;;;;;8.32;5.50;;;;;;;9.24;81.95;93591.69;5061692;28;20319;-71
2023/03/22 00:08:08;;;;;;;8.48;5.30;;;;;;;9.23;82.21;93588.22;5061967;28;20021;-71
2023/03/22 00:10:35;;;;;;;10.52;4.80;;;;;;;9.24;82.57;93586.34;5061222;28;20068;-71
2023/03/22 00:13:01;;;;;;;8.57;5.50;;;;;;;9.22;82.95;93589.31;5061366;28;20029;-71
2023/03/22 00:15:28;;;;;;;8.68;5.70;;;;;;;9.21;82.81;93586.97;5061655;28;20345;-71
2023/03/22 00:17:55;;;;;;;7.85;5.30;;;;;;;9.18;82.92;93587.56;5062719;28;20027;-71
2023/03/22 00:20:22;;;;;;;10.98;6.38;;;;;;;9.15;83.09;93583.66;5063245;28;20256;-71
2023/03/22 00:22:48;;;;;;;10.60;6.43;;;;;;;9.17;83.40;93588.69;5063264;28;20020;-71
2023/03/22 00:25:14;;;;;;;11.68;6.18;;;;;;;9.17;83.54;93586.03;5063168;28;20020;-71
2023/03/22 00:27:40;;;;;;;8.07;5.20;;;;;;;9.20;83.70;93580.09;5063477;28;20066;-71
2023/03/22 00:30:06;;;;;;;12.75;5.85;;;;;;;9.22;83.78;93589.31;5063085;28;20028;-71
2023/03/22 00:32:36;;;;;;;10.30;5.75;;;;;;;9.24;83.74;93575.72;5063030;28;20032;-71
2023/03/22 00:35:03;;;;;;;8.40;5.63;;;;;;;9.26;83.76;93573.53;5063001;28;20224;-71
2023/03/22 00:37:33;;;;;;;9.65;6.10;;;;;;;9.29;83.56;93572.13;5062980;28;20232;-71
2023/03/22 00:40:02;;;;;;;8.25;5.68;;;;;;;9.30;83.35;93579.78;5062834;28;20048;-71
2023/03/22 00:42:27;;;;;;;9.80;7.03;;;;;;;9.30;83.32;93574.47;5062927;28;20028;-71
2023/03/22 00:44:53;;;;;;;11.00;8.07;;;;;;;9.30;82.98;93574.47;5062783;28;20029;-71
2023/03/22 00:47:18;;;;;;;9.50;6.07;;;;;;;9.21;82.43;93571.78;5062917;28;20045;-71
2023/03/22 00:49:44;;;;;;;10.00;5.53;;;;;;;9.19;82.45;93573.97;5062704;28;20052;-71
2023/03/22 00:52:09;;;;;;;9.93;6.22;;;;;;;9.13;82.56;93572.56;5063059;28;20028;-71
2023/03/22 00:54:35;;;;;;;9.45;5.40;;;;;;;9.03;82.64;93570.97;5062721;28;20024;-71
2023/03/22 00:57:00;;;;;;;8.32;4.80;;;;;;;9.01;82.58;93567.06;5062719;28;20312;-71
2023/03/22 00:59:27;;;;;;;6.63;3.88;;;;;;;8.90;82.12;93571.91;5062720;28;20040;-71
2023/03/22 01:01:52;;;;;;;5.72;3.78;;;;;;;8.78;82.52;93575.13;5062760;28;20029;-71
2023/03/22 01:04:24;;;;;;;5.43;2.88;;;;;;;8.77;81.20;93572.78;5062786;28;20074;-71
2023/03/22 01:06:50;;;;;;;5.13;2.40;;;;;;;8.68;80.75;93572.75;5062554;28;20223;-71
2023/03/22 01:09:15;;;;;;;6.00;2.75;;;;;;;8.53;81.36;93573.16;5061568;28;20103;-71
2023/03/22 01:11:42;;;;;;;3.75;2.33;;;;;;;8.43;82.07;93564.38;5067623;28;20021;-71
2023/03/22 01:14:08;;;;;;;3.60;2.17;;;;;;;8.35;81.57;93562.44;5069410;28;20021;-70
2023/03/22 01:16:37;;;;;;;5.65;2.40;;;;;;;8.26;82.40;93558.19;5069258;28;20055;-70
2023/03/22 01:19:02;;;;;;;5.10;2.33;;;;;;;8.17;82.39;93555.50;5069366;28;20032;-70
2023/03/22 01:21:28;;;;;;;5.18;2.53;;;;;;;8.20;83.58;93555.66;5069130;28;20219;-71
2023/03/22 01:23:53;;;;;;;3.70;2.72;;;;;;;8.26;83.83;93558.19;5069186;28;20032;-71
2023/03/22 01:26:19;;;;;;;4.63;2.72;;;;;;;8.28;84.11;93559.44;5069205;28;20315;-71
2023/03/22 01:28:44;;;;;;;7.22;2.90;;;;;;;8.23;84.04;93554.28;5069286;28;20037;-71
2023/03/22 01:31:10;;;;;;;5.25;2.67;;;;;;;8.18;83.65;93549.88;5069165;28;20266;-70
2023/03/22 01:33:35;;;;;;;4.25;2.72;;;;;;;8.11;83.98;93554.06;5069217;28;20028;-70
2023/03/22 01:36:01;;;;;;;4.70;2.75;;;;;;;8.07;84.36;93547.78;5069132;28;20031;-70
2023/03/22 01:38:26;;;;;;;4.88;2.30;;;;;;;8.02;84.14;93543.41;5069005;28;20036;-70
2023/03/22 01:40:52;;;;;;;5.40;2.55;;;;;;;8.04;84.86;93549.19;5069122;28;20036;-70
2023/03/22 01:43:17;;;;;;;4.28;2.22;;;;;;;8.03;84.47;93550.25;5069048;28;20043;-70
2023/03/22 01:45:47;;;;;;;4.43;3.08;;;;;;;7.98;84.48;93551.19;5068971;28;20025;-70
2023/03/22 01:48:18;;;;;;;3.88;2.42;;;;;;;7.92;84.66;93546.31;5068876;28;20104;-71
2023/03/22 01:51:21;;;;;;;5.50;2.50;;;;;;;7.88;85.25;93537.38;5069110;28;20032;-71
2023/03/22 01:53:55;;;;;;;4.55;2.30;;;;;;;7.87;85.75;93544.53;5069024;28;20033;-71
2023/03/22 01:56:24;;;;;;;3.80;2.05;;;;;;;7.88;85.29;93538.16;5069052;28;20028;-71
2023/03/22 01:58:52;;;;;;;4.63;2.50;;;;;;;7.88;85.40;93537.38;5069045;28;20357;-71
2023/03/22 02:01:19;;;;;;;4.32;2.67;;;;;;;7.89;85.80;93545.03;5068850;28;20099;-71
2023/03/22 02:04:02;;;;;;;3.42;2.22;;;;;;;7.84;86.08;93537.97;5069070;28;20029;-71
2023/03/22 02:06:28;;;;;;;3.20;2.20;;;;;;;7.80;85.95;93542.31;5069071;28;20021;-71
2023/03/22 02:08:57;;;;;;;3.90;1.90;;;;;;;7.70;86.05;93539.16;5068870;28;20025;-71
2023/03/22 02:11:42;;;;;;;3.47;2.45;;;;;;;7.68;86.34;93542.09;5068920;28;20020;-71
2023/03/22 02:14:41;;;;;;;3.72;2.22;;;;;;;7.62;86.41;93538.00;5068883;28;20029;-71
2023/03/22 02:17:29;;;;;;;4.35;2.30;;;;;;;7.51;87.15;93547.25;5069053;28;20021;-71
2023/03/22 02:20:42;;;;;;;3.50;1.92;;;;;;;7.47;87.33;93546.28;5068715;28;20024;-71
2023/03/22 02:23:26;;;;;;;2.90;1.52;;;;;;;7.49;87.66;93542.28;5045941;28;20048;-71
2023/03/22 02:26:06;;;;;;;3.05;1.77;;;;;;;7.51;87.76;93544.59;5065570;28;20056;-70
2023/03/22 02:28:56;;;;;;;3.67;2.10;;;;;;;7.53;87.97;93545.09;5065496;28;20360;-71
2023/03/22 02:32:00;;;;;;;3.20;1.90;;;;;;;7.57;88.14;93548.72;5065424;28;20032;-70
2023/03/22 02:35:03;;;;;;;3.35;1.92;;;;;;;7.60;88.35;93548.91;5065356;28;20024;-71
2023/03/22 02:37:59;;;;;;;4.90;1.90;;;;;;;7.65;87.54;93545.34;5065129;28;20385;-70
2023/03/22 02:40:44;;;;;;;3.28;1.77;;;;;;;7.62;86.20;93551.25;5065273;28;20212;-70
2023/03/22 02:43:17;;;;;;;2.17;1.45;;;;;;;7.60;85.90;93553.44;5065375;28;20112;-70
2023/03/22 02:45:54;;;;;;;2.80;1.60;;;;;;;7.46;85.72;93558.78;5065188;28;20176;-70
2023/03/22 02:48:30;;;;;;;2.30;1.40;;;;;;;7.46;85.65;93558.78;5065049;28;20392;-70
2023/03/22 02:51:04;;;;;;;2.40;1.45;;;;;;;7.48;85.77;93571.75;5065266;28;20044;-70
2023/03/22 02:53:41;;;;;;;2.00;1.30;;;;;;;7.49;85.63;93563.50;5065147;28;20223;-70
2023/03/22 02:56:22;;;;;;;4.18;1.38;;;;;;;7.49;85.19;93565.34;5064881;28;20021;-71
2023/03/22 02:58:52;;;;;;;2.63;1.30;;;;;;;7.41;84.15;93559.69;5065083;28;20017;-70
2023/03/22 03:01:36;;;;;;;3.22;1.70;;;;;;;7.42;84.46;93557.81;5064939;28;20369;-70
2023/03/22 03:04:06;;;;;;;2.42;1.40;;;;;;;7.41;85.02;93561.56;5064998;28;20087;-70
2023/03/22 03:06:37;;;;;;;1.70;0.98;;;;;;;7.39;85.27;93563.72;5064850;28;20021;-70
2023/03/22 03:09:04;;;;;;;1.95;1.05;;;;;;;7.38;85.05;93565.56;5064796;28;20079;-70
2023/03/22 03:11:30;;;;;;;1.83;1.20;;;;;;;7.25;85.36;93569.06;5064619;28;20377;-70
2023/03/22 03:13:56;;;;;;;1.98;1.10;;;;;;;7.19;85.24;93564.97;5064605;28;20021;-70
2023/03/22 03:16:26;;;;;;;1.52;0.93;;;;;;;7.19;85.53;93564.97;5064665;28;20231;-71
2023/03/22 03:19:19;;;;;;;1.50;1.00;;;;;;;7.14;85.17;93565.84;5064549;28;20017;-71
2023/03/22 03:22:10;;;;;;;2.00;1.00;;;;;;;7.19;85.45;93576.34;5064310;28;20086;-71
2023/03/22 03:24:47;;;;;;;3.67;1.10;;;;;;;7.19;85.82;93570.25;5061850;28;20033;-71
2023/03/22 03:27:49;;;;;;;1.90;1.20;;;;;;;7.21;85.40;93578.69;5064531;28;20197;-71
2023/03/22 03:30:25;;;;;;;1.98;1.10;;;;;;;7.21;84.29;93573.41;5046192;28;20186;-71
2023/03/22 03:32:58;;;;;;;2.08;1.15;;;;;;;7.28;84.72;93573.75;5064275;28;20032;-71
2023/03/22 03:35:36;;;;;;;2.55;1.27;;;;;;;7.28;84.54;93578.28;5064125;28;20263;-72
2023/03/22 03:38:17;;;;;;;1.95;1.30;;;;;;;7.28;84.95;93579.06;5064332;28;20227;-71
2023/03/22 03:40:54;;;;;;;2.10;1.00;;;;;;;7.24;85.55;93567.47;5064306;28;20078;-71
2023/03/22 03:43:21;;;;;;;1.52;1.08;;;;;;;7.27;84.79;93574.84;5064219;28;20201;-70
2023/03/22 03:45:46;;;;;;;2.42;1.50;;;;;;;7.32;84.34;93573.94;5064046;28;20025;-71
2023/03/22 03:48:21;;;;;;;2.15;1.27;;;;;;;7.31;83.81;93577.69;5064154;28;20385;-71
2023/03/22 03:50:49;;;;;;;1.70;1.10;;;;;;;7.33;84.05;93586.13;5064093;28;20021;-71
2023/03/22 03:53:15;;;;;;;3.42;1.58;;;;;;;7.30;84.18;93586.72;5063878;28;20020;-71
2023/03/22 03:55:40;;;;;;;2.10;1.42;;;;;;;7.28;84.68;93580.94;5064051;28;20096;-71
2023/03/22 03:58:08;;;;;;;2.47;1.50;;;;;;;7.18;85.47;93580.06;5063755;28;20335;-71
2023/03/22 04:00:34;;;;;;;2.95;1.73;;;;;;;7.14;85.90;93584.38;5063621;28;20188;-70
2023/03/22 04:02:59;;;;;;;3.58;1.70;;;;;;;7.16;86.41;93586.75;5063687;28;20024;-71
2023/03/22 04:05:25;;;;;;;3.05;1.95;;;;;;;7.19;86.75;93586.16;5063779;28;20104;-71
2023/03/22 04:07:50;;;;;;;4.13;1.67;;;;;;;7.06;86.60;93587.72;5063695;28;20012;-71
2023/03/22 04:10:16;;;;;;;2.17;1.50;;;;;;;7.07;86.71;93586.66;5063603;28;20215;-71
2023/03/22 04:12:41;;;;;;;3.05;1.77;;;;;;;7.04;87.13;93587.25;5063671;28;20089;-72
2023/03/22 04:15:07;;;;;;;2.58;1.80;;;;;;;7.06;87.67;93592.25;5063609;28;20024;-71
2023/03/22 04:17:32;;;;;;;2.70;1.80;;;;;;;6.99;88.54;93598.75;5062256;28;20033;-71
2023/03/22 04:19:58;;;;;;;2.72;1.83;;;;;;;6.96;88.84;93593.25;5063447;28;20020;-71
2023/03/22 04:22:25;;;;;;;2.90;1.73;;;;;;;6.94;88.79;93590.91;5063538;28;20025;-71
2023/03/22 04:24:50;;;;;;;2.90;1.80;;;;;;;6.92;89.01;93594.91;5063334;28;20017;-70
2023/03/22 04:27:17;;;;;;;3.63;1.95;;;;;;;6.97;89.40;93600.13;5063368;28;20036;-71
2023/03/22 04:29:47;;;;;;;4.82;2.17;;;;;;;6.95;89.37;93592.47;5063538;28;20219;-71
2023/03/22 04:32:17;;;;;;;3.28;2.20;;;;;;;6.88;89.76;93592.09;5063292;28;20020;-71
2023/03/22 04:34:44;;;;;;;3.05;2.13;;;;;;;6.93;90.20;93605.22;5063309;28;20083;-71
2023/03/22 04:37:10;;;;;;;3.20;1.88;;;;;;;6.99;89.84;93600.63;5063246;28;20025;-71
2023/03/22 04:39:35;;;;;;;4.45;2.60;;;;;;;6.99;89.88;93601.41;5063209;28;20021;-71
2023/03/22 04:42:01;;;;;;;3.97;2.55;;;;;;;7.00;90.21;93604.81;5063235;28;20079;-71
2023/03/22 04:44:26;;;;;;;4.28;2.35;;;;;;;6.93;90.28;93604.44;5063213;28;20028;-71
2023/03/22 04:46:52;;;;;;;4.20;2.53;;;;;;;6.90;90.77;93605.84;5062467;28;20096;-71
2023/03/22 04:49:17;;;;;;;3.83;2.53;;;;;;;6.88;90.75;93604.53;5062830;28;20044;-71
2023/03/22 04:51:42;;;;;;;3.97;2.40;;;;;;;6.89;90.99;93614.84;5062983;28;20025;-71
2023/03/22 04:54:08;;;;;;;3.85;2.63;;;;;;;6.84;91.03;93614.97;5063123;28;20020;-71
2023/03/22 04:56:34;;;;;;;4.38;2.80;;;;;;;6.79;90.67;93618.47;5063127;28;20017;-71
2023/03/22 04:59:00;;;;;;;5.25;2.90;;;;;;;6.88;90.67;93617.78;5062898;28;20215;-71
2023/03/22 05:01:25;;;;;;;4.97;2.72;;;;;;;6.86;90.90;93618.09;5062723;28;20029;-71
2023/03/22 05:03:51;;;;;;;4.70;2.53;;;;;;;6.85;91.05;93621.81;5062844;28;20051;-71
2023/03/22 05:06:16;;;;;;;3.78;2.38;;;;;;;6.94;91.02;93628.00;5062757;28;20334;-71
2023/03/22 05:08:42;;;;;;;4.40;2.75;;;;;;;6.94;90.67;93622.72;5062803;28;20398;-71
2023/03/22 05:11:19;;;;;;;4.03;2.55;;;;;;;6.99;90.81;93625.25;5062873;28;20092;-71
2023/03/22 05:13:45;;;;;;;4.65;2.67;;;;;;;6.98;90.53;93629.00;5062663;28;20021;-71
2023/03/22 05:16:10;;;;;;;7.28;3.10;;;;;;;7.06;90.01;93630.13;5062829;28;20024;-71
2023/03/22 05:18:41;;;;;;;4.43;2.47;;;;;;;7.01;90.12;93636.34;5062612;28;20095;-71
2023/03/22 05:21:12;;;;;;;3.40;2.13;;;;;;;7.05;89.75;93638.41;5062456;28;20036;-71
2023/03/22 05:23:38;;;;;;;11.00;2.65;;;;;;;7.07;89.16;93641.53;5062810;28;20024;-72
2023/03/22 05:26:04;;;;;;;4.47;2.53;;;;;;;7.12;89.12;93633.47;5062551;28;20087;-72
2023/03/22 05:28:30;;;;;;;3.50;2.60;;;;;;;7.18;88.82;93642.88;5062567;28;20027;-72
2023/03/22 05:30:56;;;;;;;4.30;2.75;;;;;;;7.23;88.40;93640.16;5062389;28;20013;-73
2023/03/22 05:33:21;;;;;;;6.07;3.15;;;;;;;7.27;88.18;93635.03;5062448;28;20020;-72
2023/03/22 05:35:49;;;;;;;4.30;2.40;;;;;;;7.35;88.21;93639.66;5062346;28;20020;-72
2023/03/22 05:38:15;;;;;;;4.28;2.60;;;;;;;7.41;88.28;93635.81;5062635;28;20212;-72
2023/03/22 05:40:41;;;;;;;4.88;2.88;;;;;;;7.49;88.15;93636.94;5062449;28;20084;-72
2023/03/22 05:43:06;;;;;;;5.65;2.97;;;;;;;7.51;87.52;93651.50;5062314;28;20338;-72
2023/03/22 05:45:35;;;;;;;8.23;3.90;;;;;;;7.59;87.38;93648.13;5062309;28;20025;-72
2023/03/22 05:48:01;;;;;;;6.28;4.30;;;;;;;7.71;87.47;93650.25;5062182;28;20045;-72
2023/03/22 05:50:26;;;;;;;12.15;4.57;;;;;;;7.83;87.74;93650.50;5062397;28;20092;-72
2023/03/22 05:52:52;;;;;;;16.35;4.55;;;;;;;7.85;87.42;93652.84;5062426;28;20025;-72
2023/03/22 05:55:18;;;;;;;9.23;4.00;;;;;;;7.89;86.86;93655.69;5062149;28;20223;-72
2023/03/22 05:57:45;;;;;;;11.30;4.13;;;;;;;7.90;87.18;93662.59;5064696;28;20226;-71
2023/03/22 06:00:13;;;;;;;9.43;4.55;;;;;;;7.82;86.91;93662.22;5066138;28;20040;-72
2023/03/22 06:02:44;;;;;;;5.85;3.30;;;;;;;7.73;87.11;93669.28;5065933;28;20084;-72
2023/03/22 06:05:11;;;;;;;5.00;3.30;;;;;;;7.71;87.12;93670.69;5066037;28;20231;-72
2023/03/22 06:07:37;;;;;;;4.78;2.80;;;;;;;7.69;86.60;93663.03;5065958;28;20017;-72
2023/03/22 06:10:05;;;;;;;4.93;2.97;;;;;;;7.72;86.40;93673.03;5065878;28;20300;-72
2023/03/22 06:12:31;;;;;;;6.10;3.30;;;;;;;7.79;86.35;93668.09;5065681;28;20032;-72
2023/03/22 06:14:56;;;;;;;6.20;3.58;;;;;;;7.82;86.41;93672.81;5065484;28;20088;-72
2023/03/22 06:17:22;;;;;;;4.07;2.65;;;;;;;7.81;85.41;93671.25;5065365;28;20028;-72
2023/03/22 06:19:48;;;;;;;4.55;2.83;;;;;;;7.87;86.03;93673.78;5064280;28;20103;-72
2023/03/22 06:22:14;;;;;;;5.60;2.97;;;;;;;7.87;85.88;93668.47;5065250;28;20032;-72
2023/03/22 06:24:41;;;;;;;3.78;2.20;;;;;;;7.88;85.94;93664.75;5065618;28;20100;-72
2023/03/22 06:27:07;;;;;;;4.93;2.72;;;;;;;7.89;85.90;93671.63;5064960;28;20074;-71
2023/03/22 06:29:33;;;;;;;6.65;3.00;;;;;;;7.96;85.96;93669.34;5065159;28;20040;-71
2023/03/22 06:31:59;;;;;;;3.88;2.45;;;;;;;8.05;85.56;93675.50;5064952;28;20021;-72
2023/03/22 06:34:25;;;;;;;5.38;2.78;;;;;;;8.12;84.94;93670.56;5065277;28;20051;-71
2023/03/22 06:36:52;;;;;;;6.13;2.85;;;;;;;8.22;84.90;93678.28;5065149;28;20091;-71
2023/03/22 06:39:17;;;;;;;6.63;3.33;;;;;;;8.34;84.07;93679.59;5065155;28;20044;-72
2023/03/22 06:41:43;;;;;;;5.20;3.28;;;;;;;8.29;83.30;93685.81;5064988;28;20051;-71
2023/03/22 06:44:08;;;;;;;5.55;2.90;;;;;;;8.33;82.37;93686.00;5064822;28;20020;-72
2023/03/22 06:46:34;;;;;;;9.63;4.68;;;;;;;8.44;83.20;93690.00;5064421;28;20341;-72
2023/03/22 06:48:59;;;;;;;8.23;4.63;;;;;;;8.47;83.51;93683.28;5064452;28;20075;-71
2023/03/22 06:51:24;;;;;;;6.82;3.97;;;;;;;8.46;83.25;93693.13;5063352;28;20134;-71
2023/03/22 06:53:50;;;;;;;8.90;4.63;;;;;;;8.44;84.37;93696.09;5064541;28;20265;-72
2023/03/22 06:56:15;;;;;;;5.63;3.47;;;;;;;8.34;83.95;93690.22;5064692;28;20025;-71
2023/03/22 06:58:41;;;;;;;5.90;3.78;;;;;;;8.29;83.81;93690.34;5064979;28;20287;-71
2023/03/22 07:01:06;;;;;;;5.30;3.40;;;;;;;8.21;84.08;93702.47;5064829;28;20036;-71
2023/03/22 07:03:32;;;;;;;6.95;3.45;;;;;;;8.26;85.00;93702.34;5064498;28;20052;-71
2023/03/22 07:06:06;;;;;;;6.07;3.47;;;;;;;8.20;85.00;93707.00;5064589;28;20051;-71
2023/03/22 07:08:33;;;;;;;7.18;3.33;;;;;;;8.17;85.04;93710.25;5063978;28;20025;-71
2023/03/22 07:10:58;;;;;;;6.28;3.53;;;;;;;8.21;85.38;93716.53;5064382;28;20018;-71
2023/03/22 07:13:24;;;;;;;6.75;3.58;;;;;;;8.28;85.59;93716.09;5064758;28;20323;-70
2023/03/22 07:15:57;;;;;;;7.28;3.30;;;;;;;8.25;84.38;93716.72;5064582;28;20024;-71
2023/03/22 07:18:23;;;;;;;5.32;3.10;;;;;;;8.25;84.39;93714.06;5064648;28;20208;-70
2023/03/22 07:20:48;;;;;;;4.95;2.85;;;;;;;8.25;84.24;93727.34;5064228;28;20033;-70
2023/03/22 07:23:15;;;;;;;6.93;2.70;;;;;;;8.32;83.98;93714.41;5064474;28;20028;-71
2023/03/22 07:25:41;;;;;;;5.03;3.35;;;;;;;8.44;83.95;93721.88;5064510;28;20050;-70
2023/03/22 07:28:06;;;;;;;5.68;3.08;;;;;;;8.58;83.63;93725.25;5064379;28;20053;-70
2023/03/22 07:30:36;;;;;;;3.45;2.38;;;;;;;8.68;83.44;93728.75;5064213;28;20032;-71
2023/03/22 07:33:02;;;;;;;3.92;1.77;;;;;;;8.74;82.02;93732.84;5064513;28;20071;-71
2023/03/22 07:35:29;;;;;;;4.32;1.85;;;;;;;8.82;81.02;93730.22;5064211;28;20032;-71
2023/03/22 07:37:54;;;;;;;2.35;1.48;;;;;;;8.89;80.99;93723.69;5063950;28;20326;-71
2023/03/22 07:40:20;;;;;;;3.58;2.28;;;;;;;9.00;80.58;93730.31;5064035;28;20029;-71
2023/03/22 07:42:49;;;;;;;1.90;1.25;;;;;;;9.09;78.44;93733.03;5063964;28;20048;-71
2023/03/22 07:45:15;;;;;;;1.50;0.93;;;;;;;9.08;77.23;93742.88;5063998;28;20029;-71
2023/03/22 07:47:41;;;;;;;1.38;0.80;;;;;;;8.99;74.65;93737.50;5063992;28;20219;-72
2023/03/22 07:50:08;;;;;;;1.70;0.82;;;;;;;8.91;76.03;93738.25;5064117;28;20033;-71
2023/03/22 07:52:34;;;;;;;8.45;2.08;;;;;;;8.89;77.00;93743.06;5063645;28;20346;-71
2023/03/22 07:54:59;;;;;;;8.18;1.30;;;;;;;8.89;77.28;93739.63;5063657;28;20021;-71
2023/03/22 07:57:25;;;;;;;10.30;1.30;;;;;;;8.89;77.65;93740.41;5063584;28;20044;-70
2023/03/22 07:59:50;;;;;;;4.30;1.58;;;;;;;8.94;77.92;93755.47;5063577;28;20327;-70
2023/03/22 08:02:16;;;;;;;2.20;1.15;;;;;;;9.03;77.03;93743.78;5063657;28;20050;-72
2023/03/22 08:04:41;;;;;;;1.40;0.95;;;;;;;9.06;76.53;93738.94;5063773;28;20204;-68
2023/03/22 08:07:08;;;;;;;2.00;0.90;;;;;;;9.10;76.22;93742.53;5063559;28;20341;-69
2023/03/22 08:09:35;;;;;;;1.98;1.13;;;;;;;9.11;76.61;93736.94;5063428;28;20024;-70
2023/03/22 08:12:00;;;;;;;4.25;1.30;;;;;;;9.12;76.15;93745.69;5062707;28;20021;-70
2023/03/22 08:14:26;;;;;;;2.47;1.40;;;;;;;9.18;77.67;93737.28;5063327;28;20047;-71
2023/03/22 08:16:51;;;;;;;2.85;1.90;;;;;;;9.25;78.18;93742.16;5063446;28;20308;-83
2023/03/22 08:19:17;;;;;;;2.47;1.50;;;;;;;9.30;78.46;93742.03;5061995;28;20262;-75
2023/03/22 08:21:42;;;;;;;4.32;1.95;;;;;;;9.33;78.71;93744.06;5062223;28;20087;-75
2023/03/22 08:24:08;;;;;;;3.83;1.92;;;;;;;9.33;77.97;93743.28;5063337;28;20051;-75
2023/03/22 08:26:33;;;;;;;3.28;1.60;;;;;;;9.34;77.06;93740.31;5063152;28;20032;-74
2023/03/22 08:28:59;;;;;;;6.40;2.42;;;;;;;9.35;77.18;93746.44;5063229;28;20036;-75
2023/03/22 08:31:25;;;;;;;3.45;1.98;;;;;;;9.38;77.37;93751.91;5063123;28;20304;-75
2023/03/22 08:33:50;;;;;;;7.15;2.28;;;;;;;9.39;77.78;93750.81;5063108;28;20039;-76
2023/03/22 08:36:18;;;;;;;6.22;2.78;;;;;;;9.41;77.49;93753.94;5062959;28;20094;-76
2023/03/22 08:38:44;;;;;;;4.70;2.80;;;;;;;9.41;77.52;93756.63;5062698;28;20114;-76
2023/03/22 08:41:11;;;;;;;7.93;3.42;;;;;;;9.40;77.30;93749.75;5062498;28;20025;-75
2023/03/22 08:43:39;;;;;;;8.63;3.72;;;;;;;9.39;77.59;93753.47;5062804;28;20029;-77
2023/03/22 08:46:05;;;;;;;7.45;3.35;;;;;;;9.40;77.92;93747.06;5061339;28;20107;-80
2023/03/22 08:48:30;;;;;;;11.23;4.03;;;;;;;9.49;77.53;93749.75;5062912;28;20049;-82
2023/03/22 08:50:56;;;;;;;7.93;4.18;;;;;;;9.53;76.51;93760.56;5062841;28;20013;-80
2023/03/22 08:53:22;;;;;;;9.07;4.20;;;;;;;9.58;76.75;93760.41;5061879;28;20032;-79
2023/03/22 08:55:47;;;;;;;21.08;4.65;;;;;;;9.59;76.99;93756.69;5062657;28;20093;-81
2023/03/22 08:58:18;;;;;;;13.32;5.15;;;;;;;9.58;76.51;93755.09;5062508;28;20028;-79
2023/03/22 09:00:45;;;;;;;8.07;3.90;;;;;;;9.57;77.10;93764.19;5061063;28;20070;-78
2023/03/22 09:03:10;;;;;;;7.78;4.38;;;;;;;9.57;77.60;93764.19;5062912;28;20035;-80
2023/03/22 09:05:36;;;;;;;18.52;7.25;;;;;;;9.52;77.88;93769.63;5062755;28;20092;-81
2023/03/22 09:08:01;;;;;;;10.70;5.40;;;;;;;9.42;78.29;93773.34;5061635;28;20024;-81
2023/03/22 09:10:28;;;;;;;13.77;5.95;;;;;;;9.42;78.60;93779.47;5062750;28;20032;-81
2023/03/22 09:12:54;;;;;;;8.85;6.13;;;;;;;9.31;79.26;93767.53;5062691;28;20089;-80
2023/03/22 09:15:19;;;;;;;11.68;6.93;;;;;;;9.21;80.45;93778.44;5062417;28;20088;-80
2023/03/22 09:17:45;;;;;;;9.70;6.78;;;;;;;9.16;81.01;93773.22;5062753;28;20032;-83
2023/03/22 09:20:11;;;;;;;11.70;7.07;;;;;;;9.02;81.69;93774.13;5061629;28;20031;-82
2023/03/22 09:22:37;;;;;;;14.05;6.70;;;;;;;9.00;82.02;93772.88;5061488;28;20033;-82
2023/03/22 09:25:02;;;;;;;11.93;7.68;;;;;;;8.86;82.80;93772.94;5062541;28;20080;-78
2023/03/22 09:27:28;;;;;;;12.57;7.30;;;;;;;8.93;83.36;93770.63;5062459;28;20024;-81
2023/03/22 09:29:54;;;;;;;12.07;7.22;;;;;;;8.95;83.76;93778.28;5062478;28;20025;-81
2023/03/22 09:32:19;;;;;;;11.48;7.45;;;;;;;8.96;83.76;93783.31;5064252;28;20028;-82
2023/03/22 09:34:45;;;;;;;12.98;7.57;;;;;;;8.97;83.92;93778.78;5066751;28;20025;-79
2023/03/22 09:37:11;;;;;;;10.98;6.10;;;;;;;8.97;83.78;93776.91;5066831;28;20204;-76
2023/03/22 09:39:38;;;;;;;11.38;6.10;;;;;;;8.95;83.23;93779.06;5066100;28;20096;-79
2023/03/22 09:42:20;;;;;;;11.98;5.38;;;;;;;8.96;83.71;93769.25;5066398;28;20043;-83
2023/03/22 09:44:49;;;;;;;11.18;5.63;;;;;;;9.01;83.86;93769.09;5066398;28;20040;-80
2023/03/22 09:47:25;;;;;;;8.70;5.75;;;;;;;9.09;84.03;93775.56;5066346;28;20316;-82
2023/03/22 09:50:00;;;;;;;8.50;4.93;;;;;;;9.05;82.80;93767.41;5065183;28;20351;-83
2023/03/22 09:52:26;;;;;;;7.90;4.93;;;;;;;9.11;82.76;93768.06;5066379;28;20017;-82
2023/03/22 09:54:51;;;;;;;7.32;5.03;;;;;;;9.15;82.69;93779.66;5066203;28;20025;-82
2023/03/22 09:57:25;;;;;;;8.50;5.45;;;;;;;9.21;82.41;93765.91;5064138;28;20140;-83
2023/03/22 10:00:10;;;;;;;8.90;4.93;;;;;;;9.32;82.58;93771.78;5064540;28;20280;-84
2023/03/22 10:02:42;;;;;;;11.25;6.40;;;;;;;9.36;82.68;93775.38;5066093;28;20044;-85
2023/03/22 10:05:26;;;;;;;9.45;5.93;;;;;;;9.43;82.74;93774.94;5065972;28;20105;-83
2023/03/22 10:07:51;;;;;;;10.68;6.30;;;;;;;9.47;82.98;93769.78;5065827;28;20020;-81
2023/03/22 10:10:22;;;;;;;10.27;5.88;;;;;;;9.51;82.54;93779.50;5065779;28;20346;-81
2023/03/22 10:13:05;;;;;;;12.57;7.05;;;;;;;9.59;82.17;93784.06;5065749;28;20016;-85
2023/03/22 10:15:37;;;;;;;11.98;6.85;;;;;;;9.67;82.35;93779.88;5065893;28;20092;-85
2023/03/22 10:18:10;;;;;;;11.02;6.50;;;;;;;9.73;82.05;93785.81;5065666;28;20067;-81
2023/03/22 10:20:42;;;;;;;10.50;6.15;;;;;;;9.83;81.89;93789.00;5065234;28;20437;-85
2023/03/22 10:23:14;;;;;;;15.48;6.68;;;;;;;9.91;81.26;93792.78;5064310;28;20048;-87
2023/03/22 10:25:41;;;;;;;17.95;6.78;;;;;;;9.96;80.18;93792.63;5066055;28;20067;-90
2023/03/22 10:28:20;;;;;;;14.65;6.50;;;;;;;10.01;79.68;93789.00;5065806;28;20254;-88
2023/03/22 10:30:53;;;;;;;14.93;6.03;;;;;;;10.04;79.77;93789.19;5065316;28;20016;-86
2023/03/22 10:34:00;;;;;;;10.43;5.70;;;;;;;10.12;79.60;93784.97;5065227;28;20111;-84
2023/03/22 10:36:30;;;;;;;10.15;6.20;;;;;;;10.21;78.69;93791.09;5053306;28;20392;-84
2023/03/22 10:39:02;;;;;;;12.23;6.75;;;;;;;10.21;78.45;93787.66;5065129;28;20031;-84
2023/03/22 10:41:31;;;;;;;12.55;4.55;;;;;;;10.20;77.83;93786.88;5065352;28;20032;-84
2023/03/22 10:44:00;;;;;;;7.75;4.65;;;;;;;10.17;76.29;93784.81;5063996;28;20025;-84
2023/03/22 10:46:32;;;;;;;11.13;5.25;;;;;;;10.14;76.81;93788.13;5065031;28;20029;-84
2023/03/22 10:48:59;;;;;;;9.00;5.32;;;;;;;10.13;77.03;93791.06;5064817;28;20065;-83
2023/03/22 10:51:29;;;;;;;9.57;5.88;;;;;;;10.13;76.63;93789.19;5064820;28;20088;-83
2023/03/22 10:53:57;;;;;;;9.82;5.90;;;;;;;10.18;76.83;93788.28;5064984;28;20316;-84
2023/03/22 10:56:23;;;;;;;10.07;5.32;;;;;;;10.21;75.76;93785.75;5064906;28;20150;-82
2023/03/22 10:58:50;;;;;;;9.00;5.43;;;;;;;10.13;76.19;93789.19;5064889;28;20031;-83
2023/03/22 11:01:31;;;;;;;13.82;6.57;;;;;;;10.01;76.51;93783.69;5064681;28;20251;-82
2023/03/22 11:04:02;;;;;;;11.25;6.30;;;;;;;10.00;77.32;93784.81;5064693;28;20016;-82
2023/03/22 11:06:31;;;;;;;12.45;5.72;;;;;;;10.06;76.88;93782.78;5063437;28;20320;-82
2023/03/22 11:09:00;;;;;;;11.63;6.47;;;;;;;10.10;77.25;93779.19;5064444;28;20059;-83
2023/03/22 11:11:33;;;;;;;13.35;6.18;;;;;;;10.15;77.36;93778.25;5064772;28;20208;-81
2023/03/22 11:14:17;;;;;;;12.07;6.43;;;;;;;10.23;76.66;93786.22;5064513;28;20021;-81
2023/03/22 11:17:11;;;;;;;10.73;5.97;;;;;;;10.32;76.48;93785.47;5063492;28;20065;-82
2023/03/22 11:19:40;;;;;;;11.73;5.40;;;;;;;10.37;75.62;93777.34;5057942;28;20394;-83
2023/03/22 11:22:33;;;;;;;11.85;6.38;;;;;;;10.41;74.56;93775.63;5064295;28;20040;-83
2023/03/22 11:25:00;;;;;;;15.95;5.20;;;;;;;10.41;74.49;93767.63;5061462;28;20059;-84
2023/03/22 11:27:27;;;;;;;11.48;5.90;;;;;;;10.40;74.96;93777.50;5064223;28;20208;-82
2023/03/22 11:30:19;;;;;;;9.43;5.93;;;;;;;10.41;74.99;93771.06;5064183;28;20021;-82
2023/03/22 11:32:44;;;;;;;10.60;6.07;;;;;;;10.41;74.85;93764.97;5064071;28;20090;-82
2023/03/22 11:35:14;;;;;;;9.45;5.68;;;;;;;10.43;74.89;93768.09;5064353;28;20303;-83
2023/03/22 11:37:42;;;;;;;11.88;5.35;;;;;;;10.35;76.07;93763.56;5063898;28;20135;-83
2023/03/22 11:40:17;;;;;;;10.48;5.32;;;;;;;10.30;76.07;93761.03;5064144;28;20043;-83
2023/03/22 11:42:43;;;;;;;8.55;5.40;;;;;;;10.26;75.96;93763.53;5064135;28;20192;-82
2023/03/22 11:45:15;;;;;;;8.68;5.95;;;;;;;10.25;75.50;93768.06;5064132;28;20055;-83
2023/03/22 11:47:40;;;;;;;;;;;;;;;10.23;75.95;93764.13;5064538;28;20247;-83
2023/03/22 11:50:14;;;;;;;14.30;5.97;;;;;;;10.16;75.60;93769.94;5063874;28;19912;-84